Babcock, Illinois
Current Conditions -  °F | °C
As of 2:52 AM on Monday 22 Dec 2014 (Local Time) from KMLI Reporting Station
Overcast Overcast  
Wind Chill: -2°   Ceiling: 6000
Heat Index:   Visibility: 7mi
Dew Point: -1°   Wind: 12mph
Humidity: 82%   Direction: 160°SSE
Pressure: 29.86"   Gusts: NA
Location:  41.5228°N, 90.3951°W
Report Text: KMLI 220852Z AUTO 16010KT 7SM OVC060 02/M01 A2986 RMK AO2 SLP116 60000 T00221006 56017 $
Loading
Personal Weather Stations






























Interactive Weather Map New forecast layout! Learn more

10-Day Weather Forecast

Advertisements
Track Severe Weather on mobile